sensor_id;sensor_type;location;lat;lon;timestamp;pressure;altitude;pressure_sealevel;temperature
20058;BMP180;10189;49.546;7.906;2023-02-28T00:00:35;99106.00;;;1.30
20058;BMP180;10189;49.546;7.906;2023-02-28T00:03:02;99115.00;;;1.20
20058;BMP180;10189;49.546;7.906;2023-02-28T00:05:28;99113.00;;;1.30
20058;BMP180;10189;49.546;7.906;2023-02-28T00:07:55;99110.00;;;1.20
20058;BMP180;10189;49.546;7.906;2023-02-28T00:10:28;99120.00;;;1.20
20058;BMP180;10189;49.546;7.906;2023-02-28T00:13:00;99109.00;;;1.20
20058;BMP180;10189;49.546;7.906;2023-02-28T00:15:27;99122.00;;;1.20
20058;BMP180;10189;49.546;7.906;2023-02-28T00:17:54;99114.00;;;1.20
20058;BMP180;10189;49.546;7.906;2023-02-28T00:20:20;99112.00;;;1.20
20058;BMP180;10189;49.546;7.906;2023-02-28T00:22:50;99114.00;;;1.20
20058;BMP180;10189;49.546;7.906;2023-02-28T00:25:22;99120.00;;;1.10
20058;BMP180;10189;49.546;7.906;2023-02-28T00:27:48;99122.00;;;1.00
20058;BMP180;10189;49.546;7.906;2023-02-28T00:30:21;99118.00;;;1.00
20058;BMP180;10189;49.546;7.906;2023-02-28T00:32:48;99121.00;;;1.00
20058;BMP180;10189;49.546;7.906;2023-02-28T00:35:15;99122.00;;;1.00
20058;BMP180;10189;49.546;7.906;2023-02-28T00:37:41;99124.00;;;0.90
20058;BMP180;10189;49.546;7.906;2023-02-28T00:40:09;99119.00;;;0.90
20058;BMP180;10189;49.546;7.906;2023-02-28T00:42:36;99137.00;;;0.80
20058;BMP180;10189;49.546;7.906;2023-02-28T00:45:04;99128.00;;;0.90
20058;BMP180;10189;49.546;7.906;2023-02-28T00:47:31;99126.00;;;0.80
20058;BMP180;10189;49.546;7.906;2023-02-28T00:49:58;99126.00;;;0.80
20058;BMP180;10189;49.546;7.906;2023-02-28T00:52:24;99108.00;;;0.80
20058;BMP180;10189;49.546;7.906;2023-02-28T00:54:50;99127.00;;;0.80
20058;BMP180;10189;49.546;7.906;2023-02-28T00:57:17;99126.00;;;0.90
20058;BMP180;10189;49.546;7.906;2023-02-28T00:59:43;99116.00;;;0.90
20058;BMP180;10189;49.546;7.906;2023-02-28T01:02:09;99115.00;;;0.90
20058;BMP180;10189;49.546;7.906;2023-02-28T01:04:36;99119.00;;;0.80
20058;BMP180;10189;49.546;7.906;2023-02-28T01:07:02;99112.00;;;0.80
20058;BMP180;10189;49.546;7.906;2023-02-28T01:09:28;99119.00;;;0.80
20058;BMP180;10189;49.546;7.906;2023-02-28T01:11:54;99122.00;;;0.70
20058;BMP180;10189;49.546;7.906;2023-02-28T01:14:21;99122.00;;;0.80
20058;BMP180;10189;49.546;7.906;2023-02-28T01:16:48;99117.00;;;0.80
20058;BMP180;10189;49.546;7.906;2023-02-28T01:19:15;99111.00;;;0.80
20058;BMP180;10189;49.546;7.906;2023-02-28T01:21:41;99117.00;;;0.80
20058;BMP180;10189;49.546;7.906;2023-02-28T01:24:07;99111.00;;;0.80
20058;BMP180;10189;49.546;7.906;2023-02-28T01:26:35;99113.00;;;0.80
20058;BMP180;10189;49.546;7.906;2023-02-28T01:29:01;99115.00;;;0.80
20058;BMP180;10189;49.546;7.906;2023-02-28T01:31:27;99116.00;;;0.70
20058;BMP180;10189;49.546;7.906;2023-02-28T01:33:53;99120.00;;;0.70
20058;BMP180;10189;49.546;7.906;2023-02-28T01:36:23;99120.00;;;0.70
20058;BMP180;10189;49.546;7.906;2023-02-28T01:38:50;99121.00;;;0.60
20058;BMP180;10189;49.546;7.906;2023-02-28T01:41:24;99122.00;;;0.60
20058;BMP180;10189;49.546;7.906;2023-02-28T01:44:05;99113.00;;;0.70
20058;BMP180;10189;49.546;7.906;2023-02-28T01:46:36;99111.00;;;0.70
20058;BMP180;10189;49.546;7.906;2023-02-28T01:49:09;99127.00;;;0.60
20058;BMP180;10189;49.546;7.906;2023-02-28T01:51:44;99117.00;;;0.60
20058;BMP180;10189;49.546;7.906;2023-02-28T01:54:21;99094.00;;;0.60
20058;BMP180;10189;49.546;7.906;2023-02-28T01:57:02;99121.00;;;0.60
20058;BMP180;10189;49.546;7.906;2023-02-28T02:00:07;99123.00;;;0.60
20058;BMP180;10189;49.546;7.906;2023-02-28T02:02:41;99106.00;;;0.60
20058;BMP180;10189;49.546;7.906;2023-02-28T02:05:12;99105.00;;;0.60
20058;BMP180;10189;49.546;7.906;2023-02-28T02:07:43;99107.00;;;0.60
20058;BMP180;10189;49.546;7.906;2023-02-28T02:10:19;99108.00;;;0.70
20058;BMP180;10189;49.546;7.906;2023-02-28T02:13:25;99111.00;;;0.60
20058;BMP180;10189;49.546;7.906;2023-02-28T02:23:19;99090.00;;;0.40
20058;BMP180;10189;49.546;7.906;2023-02-28T02:40:19;99086.00;;;0.40
20058;BMP180;10189;49.546;7.906;2023-02-28T02:43:01;99099.00;;;0.40
20058;BMP180;10189;49.546;7.906;2023-02-28T02:45:41;99100.00;;;0.50
20058;BMP180;10189;49.546;7.906;2023-02-28T02:48:15;99098.00;;;0.50
20058;BMP180;10189;49.546;7.906;2023-02-28T02:50:55;99092.00;;;0.50
20058;BMP180;10189;49.546;7.906;2023-02-28T02:53:30;99098.00;;;0.50
20058;BMP180;10189;49.546;7.906;2023-02-28T02:56:01;99100.00;;;0.40
20058;BMP180;10189;49.546;7.906;2023-02-28T02:58:36;99104.00;;;0.30
20058;BMP180;10189;49.546;7.906;2023-02-28T03:01:16;99095.00;;;0.30
20058;BMP180;10189;49.546;7.906;2023-02-28T03:04:08;99105.00;;;0.30
20058;BMP180;10189;49.546;7.906;2023-02-28T03:06:35;99097.00;;;0.30
20058;BMP180;10189;49.546;7.906;2023-02-28T03:09:02;99103.00;;;0.30
20058;BMP180;10189;49.546;7.906;2023-02-28T03:11:30;99100.00;;;0.30
20058;BMP180;10189;49.546;7.906;2023-02-28T03:14:24;99098.00;;;0.20
20058;BMP180;10189;49.546;7.906;2023-02-28T03:17:19;99113.00;;;0.30
20058;BMP180;10189;49.546;7.906;2023-02-28T03:20:27;99101.00;;;0.30
20058;BMP180;10189;49.546;7.906;2023-02-28T03:23:19;99103.00;;;0.30
20058;BMP180;10189;49.546;7.906;2023-02-28T03:26:06;99097.00;;;0.30
20058;BMP180;10189;49.546;7.906;2023-02-28T03:29:00;99097.00;;;0.40
20058;BMP180;10189;49.546;7.906;2023-02-28T03:31:39;99093.00;;;0.50
20058;BMP180;10189;49.546;7.906;2023-02-28T03:34:29;99089.00;;;0.50
20058;BMP180;10189;49.546;7.906;2023-02-28T03:37:10;99085.00;;;0.50
20058;BMP180;10189;49.546;7.906;2023-02-28T03:39:47;99085.00;;;0.60
20058;BMP180;10189;49.546;7.906;2023-02-28T03:42:21;99083.00;;;0.50
20058;BMP180;10189;49.546;7.906;2023-02-28T03:44:59;99085.00;;;0.60
20058;BMP180;10189;49.546;7.906;2023-02-28T03:47:52;99081.00;;;0.60
20058;BMP180;10189;49.546;7.906;2023-02-28T03:50:29;99082.00;;;0.50
20058;BMP180;10189;49.546;7.906;2023-02-28T03:55:59;99089.00;;;0.60
20058;BMP180;10189;49.546;7.906;2023-02-28T03:58:37;99080.00;;;0.50
20058;BMP180;10189;49.546;7.906;2023-02-28T04:01:31;99074.00;;;0.50
20058;BMP180;10189;49.546;7.906;2023-02-28T04:03:59;99084.00;;;0.50
20058;BMP180;10189;49.546;7.906;2023-02-28T04:06:25;99084.00;;;0.30
20058;BMP180;10189;49.546;7.906;2023-02-28T04:08:51;99090.00;;;0.30
20058;BMP180;10189;49.546;7.906;2023-02-28T04:11:39;99093.00;;;0.30
20058;BMP180;10189;49.546;7.906;2023-02-28T04:14:08;99086.00;;;0.30
20058;BMP180;10189;49.546;7.906;2023-02-28T04:16:37;99076.00;;;0.30
20058;BMP180;10189;49.546;7.906;2023-02-28T04:19:04;99094.00;;;0.30
20058;BMP180;10189;49.546;7.906;2023-02-28T04:21:38;99087.00;;;0.30
20058;BMP180;10189;49.546;7.906;2023-02-28T04:24:06;99090.00;;;0.20
20058;BMP180;10189;49.546;7.906;2023-02-28T04:26:35;99085.00;;;0.30
20058;BMP180;10189;49.546;7.906;2023-02-28T04:29:04;99086.00;;;0.30
20058;BMP180;10189;49.546;7.906;2023-02-28T04:31:31;99086.00;;;0.30
20058;BMP180;10189;49.546;7.906;2023-02-28T04:33:57;99074.00;;;0.30
20058;BMP180;10189;49.546;7.906;2023-02-28T04:36:23;99085.00;;;0.30
20058;BMP180;10189;49.546;7.906;2023-02-28T04:38:49;99083.00;;;0.40
20058;BMP180;10189;49.546;7.906;2023-02-28T04:41:16;99088.00;;;0.20
20058;BMP180;10189;49.546;7.906;2023-02-28T04:43:43;99083.00;;;0.20
20058;BMP180;10189;49.546;7.906;2023-02-28T04:46:09;99080.00;;;0.20
20058;BMP180;10189;49.546;7.906;2023-02-28T04:48:38;99083.00;;;0.20
20058;BMP180;10189;49.546;7.906;2023-02-28T04:51:11;99085.00;;;0.20
20058;BMP180;10189;49.546;7.906;2023-02-28T04:53:39;99084.00;;;0.30
20058;BMP180;10189;49.546;7.906;2023-02-28T04:56:07;99087.00;;;0.30
20058;BMP180;10189;49.546;7.906;2023-02-28T04:58:34;99093.00;;;0.30
20058;BMP180;10189;49.546;7.906;2023-02-28T05:01:26;99093.00;;;0.20
20058;BMP180;10189;49.546;7.906;2023-02-28T05:03:55;99102.00;;;0.20
20058;BMP180;10189;49.546;7.906;2023-02-28T05:06:24;99096.00;;;0.20
20058;BMP180;10189;49.546;7.906;2023-02-28T05:08:51;99097.00;;;0.20
20058;BMP180;10189;49.546;7.906;2023-02-28T05:11:32;99101.00;;;0.20
20058;BMP180;10189;49.546;7.906;2023-02-28T05:14:09;99100.00;;;0.20
20058;BMP180;10189;49.546;7.906;2023-02-28T05:16:35;99109.00;;;0.10
20058;BMP180;10189;49.546;7.906;2023-02-28T05:19:01;99097.00;;;0.10
20058;BMP180;10189;49.546;7.906;2023-02-28T05:21:34;99106.00;;;0.20
20058;BMP180;10189;49.546;7.906;2023-02-28T05:24:14;99106.00;;;0.10
20058;BMP180;10189;49.546;7.906;2023-02-28T05:26:42;99111.00;;;0.10
20058;BMP180;10189;49.546;7.906;2023-02-28T05:29:09;99092.00;;;0.20
20058;BMP180;10189;49.546;7.906;2023-02-28T05:31:36;99099.00;;;0.10
20058;BMP180;10189;49.546;7.906;2023-02-28T05:34:02;99100.00;;;0.10
20058;BMP180;10189;49.546;7.906;2023-02-28T05:36:30;99121.00;;;0.10
20058;BMP180;10189;49.546;7.906;2023-02-28T05:38:56;99103.00;;;0.10
20058;BMP180;10189;49.546;7.906;2023-02-28T05:41:22;99113.00;;;0.00
20058;BMP180;10189;49.546;7.906;2023-02-28T05:43:49;99115.00;;;0.10
20058;BMP180;10189;49.546;7.906;2023-02-28T05:46:15;99121.00;;;0.00
20058;BMP180;10189;49.546;7.906;2023-02-28T05:48:45;99110.00;;;0.00
20058;BMP180;10189;49.546;7.906;2023-02-28T05:51:11;99118.00;;;0.00
20058;BMP180;10189;49.546;7.906;2023-02-28T05:53:37;99122.00;;;0.00
20058;BMP180;10189;49.546;7.906;2023-02-28T05:56:03;99115.00;;;0.00
20058;BMP180;10189;49.546;7.906;2023-02-28T05:58:29;99125.00;;;0.00
20058;BMP180;10189;49.546;7.906;2023-02-28T06:01:18;99116.00;;;-0.10
20058;BMP180;10189;49.546;7.906;2023-02-28T06:03:45;99122.00;;;-0.10
20058;BMP180;10189;49.546;7.906;2023-02-28T06:06:10;99123.00;;;-0.10
20058;BMP180;10189;49.546;7.906;2023-02-28T06:08:36;99118.00;;;-0.10
20058;BMP180;10189;49.546;7.906;2023-02-28T06:11:05;99116.00;;;-0.10
20058;BMP180;10189;49.546;7.906;2023-02-28T06:13:32;99119.00;;;-0.10
20058;BMP180;10189;49.546;7.906;2023-02-28T06:16:01;99126.00;;;-0.10
20058;BMP180;10189;49.546;7.906;2023-02-28T06:18:27;99127.00;;;-0.10
20058;BMP180;10189;49.546;7.906;2023-02-28T06:20:54;99130.00;;;-0.10
20058;BMP180;10189;49.546;7.906;2023-02-28T06:23:21;99126.00;;;0.00
20058;BMP180;10189;49.546;7.906;2023-02-28T06:25:47;99147.00;;;0.10
20058;BMP180;10189;49.546;7.906;2023-02-28T06:28:15;99116.00;;;0.00
20058;BMP180;10189;49.546;7.906;2023-02-28T06:30:41;99137.00;;;0.10
20058;BMP180;10189;49.546;7.906;2023-02-28T06:33:07;99141.00;;;0.10
20058;BMP180;10189;49.546;7.906;2023-02-28T06:35:32;99133.00;;;0.00
20058;BMP180;10189;49.546;7.906;2023-02-28T06:37:58;99138.00;;;0.10
20058;BMP180;10189;49.546;7.906;2023-02-28T06:40:24;99135.00;;;0.10
20058;BMP180;10189;49.546;7.906;2023-02-28T06:42:50;99123.00;;;0.10
20058;BMP180;10189;49.546;7.906;2023-02-28T06:45:16;99130.00;;;0.20
20058;BMP180;10189;49.546;7.906;2023-02-28T06:47:42;99121.00;;;0.40
20058;BMP180;10189;49.546;7.906;2023-02-28T06:50:11;99123.00;;;0.50
20058;BMP180;10189;49.546;7.906;2023-02-28T06:52:38;99127.00;;;0.60
20058;BMP180;10189;49.546;7.906;2023-02-28T06:55:06;99135.00;;;0.60
20058;BMP180;10189;49.546;7.906;2023-02-28T06:57:34;99129.00;;;0.60
20058;BMP180;10189;49.546;7.906;2023-02-28T07:00:07;99133.00;;;0.70
20058;BMP180;10189;49.546;7.906;2023-02-28T07:02:36;99146.00;;;0.70
20058;BMP180;10189;49.546;7.906;2023-02-28T07:05:04;99147.00;;;0.70
20058;BMP180;10189;49.546;7.906;2023-02-28T07:07:31;99144.00;;;0.70
20058;BMP180;10189;49.546;7.906;2023-02-28T07:09:57;99150.00;;;0.70
20058;BMP180;10189;49.546;7.906;2023-02-28T07:12:23;99144.00;;;0.70
20058;BMP180;10189;49.546;7.906;2023-02-28T07:14:49;99150.00;;;0.70
20058;BMP180;10189;49.546;7.906;2023-02-28T07:17:16;99142.00;;;0.70
20058;BMP180;10189;49.546;7.906;2023-02-28T07:19:41;99134.00;;;0.80
20058;BMP180;10189;49.546;7.906;2023-02-28T07:22:07;99145.00;;;0.80
20058;BMP180;10189;49.546;7.906;2023-02-28T07:24:33;99155.00;;;0.90
20058;BMP180;10189;49.546;7.906;2023-02-28T07:26:59;99149.00;;;0.90
20058;BMP180;10189;49.546;7.906;2023-02-28T07:29:26;99148.00;;;1.00
20058;BMP180;10189;49.546;7.906;2023-02-28T07:31:52;99147.00;;;1.00
20058;BMP180;10189;49.546;7.906;2023-02-28T07:34:20;99145.00;;;1.00
20058;BMP180;10189;49.546;7.906;2023-02-28T07:36:46;99142.00;;;1.10
20058;BMP180;10189;49.546;7.906;2023-02-28T07:39:12;99137.00;;;1.20
20058;BMP180;10189;49.546;7.906;2023-02-28T07:41:37;99133.00;;;1.30
20058;BMP180;10189;49.546;7.906;2023-02-28T07:44:10;99137.00;;;1.40
20058;BMP180;10189;49.546;7.906;2023-02-28T07:46:36;99129.00;;;1.50
20058;BMP180;10189;49.546;7.906;2023-02-28T07:49:03;99137.00;;;1.60
20058;BMP180;10189;49.546;7.906;2023-02-28T07:51:30;99132.00;;;1.60
20058;BMP180;10189;49.546;7.906;2023-02-28T07:53:56;99139.00;;;1.60
20058;BMP180;10189;49.546;7.906;2023-02-28T07:56:22;99134.00;;;1.70
20058;BMP180;10189;49.546;7.906;2023-02-28T07:58:48;99141.00;;;1.70
20058;BMP180;10189;49.546;7.906;2023-02-28T08:01:14;99138.00;;;1.70
20058;BMP180;10189;49.546;7.906;2023-02-28T08:03:40;99137.00;;;1.70
20058;BMP180;10189;49.546;7.906;2023-02-28T08:06:15;99136.00;;;2.00
20058;BMP180;10189;49.546;7.906;2023-02-28T08:08:41;99125.00;;;2.10
20058;BMP180;10189;49.546;7.906;2023-02-28T08:11:07;99122.00;;;2.30
20058;BMP180;10189;49.546;7.906;2023-02-28T08:13:33;99121.00;;;2.20
20058;BMP180;10189;49.546;7.906;2023-02-28T08:16:01;99124.00;;;2.20
20058;BMP180;10189;49.546;7.906;2023-02-28T08:18:27;99117.00;;;2.40
20058;BMP180;10189;49.546;7.906;2023-02-28T08:20:53;99128.00;;;2.40
20058;BMP180;10189;49.546;7.906;2023-02-28T08:23:19;99110.00;;;2.60
20058;BMP180;10189;49.546;7.906;2023-02-28T08:25:53;99117.00;;;2.60
20058;BMP180;10189;49.546;7.906;2023-02-28T08:28:20;99122.00;;;2.60
20058;BMP180;10189;49.546;7.906;2023-02-28T08:30:46;99122.00;;;2.50
20058;BMP180;10189;49.546;7.906;2023-02-28T08:33:12;99116.00;;;2.40
20058;BMP180;10189;49.546;7.906;2023-02-28T08:35:38;99114.00;;;2.50
20058;BMP180;10189;49.546;7.906;2023-02-28T08:38:03;99116.00;;;2.60
20058;BMP180;10189;49.546;7.906;2023-02-28T08:40:29;99132.00;;;2.50
20058;BMP180;10189;49.546;7.906;2023-02-28T08:42:55;99131.00;;;2.40
20058;BMP180;10189;49.546;7.906;2023-02-28T08:45:21;99122.00;;;2.60
20058;BMP180;10189;49.546;7.906;2023-02-28T08:47:47;99113.00;;;2.50
20058;BMP180;10189;49.546;7.906;2023-02-28T08:50:13;99112.00;;;2.70
20058;BMP180;10189;49.546;7.906;2023-02-28T08:52:43;99113.00;;;3.00
20058;BMP180;10189;49.546;7.906;2023-02-28T08:55:10;99121.00;;;3.20
20058;BMP180;10189;49.546;7.906;2023-02-28T08:57:36;99106.00;;;3.20
20058;BMP180;10189;49.546;7.906;2023-02-28T09:00:03;99108.00;;;3.20
20058;BMP180;10189;49.546;7.906;2023-02-28T09:02:33;99104.00;;;3.10
20058;BMP180;10189;49.546;7.906;2023-02-28T09:04:59;99100.00;;;3.20
20058;BMP180;10189;49.546;7.906;2023-02-28T09:07:25;99116.00;;;3.30
20058;BMP180;10189;49.546;7.906;2023-02-28T09:09:51;99111.00;;;3.20
20058;BMP180;10189;49.546;7.906;2023-02-28T09:12:25;99111.00;;;3.20
20058;BMP180;10189;49.546;7.906;2023-02-28T09:14:52;99104.00;;;3.20
20058;BMP180;10189;49.546;7.906;2023-02-28T09:17:18;99106.00;;;3.40
20058;BMP180;10189;49.546;7.906;2023-02-28T09:19:47;99103.00;;;3.40
20058;BMP180;10189;49.546;7.906;2023-02-28T09:22:13;99112.00;;;3.50
20058;BMP180;10189;49.546;7.906;2023-02-28T09:24:39;99112.00;;;3.60
20058;BMP180;10189;49.546;7.906;2023-02-28T09:27:05;99105.00;;;3.50
20058;BMP180;10189;49.546;7.906;2023-02-28T09:29:33;99099.00;;;3.40
20058;BMP180;10189;49.546;7.906;2023-02-28T09:32:00;99104.00;;;3.70
20058;BMP180;10189;49.546;7.906;2023-02-28T09:34:27;99116.00;;;3.50
20058;BMP180;10189;49.546;7.906;2023-02-28T09:36:59;99093.00;;;3.60
20058;BMP180;10189;49.546;7.906;2023-02-28T09:39:27;99094.00;;;3.80
20058;BMP180;10189;49.546;7.906;2023-02-28T09:41:56;99094.00;;;3.80
20058;BMP180;10189;49.546;7.906;2023-02-28T09:44:38;99099.00;;;3.80
20058;BMP180;10189;49.546;7.906;2023-02-28T09:47:42;99090.00;;;3.80
20058;BMP180;10189;49.546;7.906;2023-02-28T09:50:33;99089.00;;;3.90
20058;BMP180;10189;49.546;7.906;2023-02-28T09:53:13;99094.00;;;4.00
20058;BMP180;10189;49.546;7.906;2023-02-28T09:55:55;99089.00;;;3.90
20058;BMP180;10189;49.546;7.906;2023-02-28T10:01:59;99073.00;;;4.30
20058;BMP180;10189;49.546;7.906;2023-02-28T10:04:59;99076.00;;;4.20
20058;BMP180;10189;49.546;7.906;2023-02-28T10:08:33;99086.00;;;4.20
20058;BMP180;10189;49.546;7.906;2023-02-28T10:10:49;99089.00;;;4.10
20058;BMP180;10189;49.546;7.906;2023-02-28T10:13:52;99076.00;;;4.30
20058;BMP180;10189;49.546;7.906;2023-02-28T10:19:21;99071.00;;;4.40
20058;BMP180;10189;49.546;7.906;2023-02-28T10:21:55;99099.00;;;4.30
20058;BMP180;10189;49.546;7.906;2023-02-28T10:24:35;99075.00;;;4.20
20058;BMP180;10189;49.546;7.906;2023-02-28T10:27:18;99086.00;;;4.10
20058;BMP180;10189;49.546;7.906;2023-02-28T10:29:57;99074.00;;;4.20
20058;BMP180;10189;49.546;7.906;2023-02-28T10:32:34;99070.00;;;4.30
20058;BMP180;10189;49.546;7.906;2023-02-28T10:37:47;99056.00;;;4.70
20058;BMP180;10189;49.546;7.906;2023-02-28T10:46:15;99049.00;;;5.30
20058;BMP180;10189;49.546;7.906;2023-02-28T10:49:03;99062.00;;;5.00
20058;BMP180;10189;49.546;7.906;2023-02-28T10:51:38;99060.00;;;5.00
20058;BMP180;10189;49.546;7.906;2023-02-28T10:54:05;99061.00;;;4.80
20058;BMP180;10189;49.546;7.906;2023-02-28T10:56:32;99065.00;;;5.20
20058;BMP180;10189;49.546;7.906;2023-02-28T10:59:25;99053.00;;;4.90
20058;BMP180;10189;49.546;7.906;2023-02-28T11:01:52;99050.00;;;5.00
20058;BMP180;10189;49.546;7.906;2023-02-28T11:07:19;99059.00;;;5.00
20058;BMP180;10189;49.546;7.906;2023-02-28T11:09:55;99057.00;;;4.80
20058;BMP180;10189;49.546;7.906;2023-02-28T11:14:57;99066.00;;;4.80
20058;BMP180;10189;49.546;7.906;2023-02-28T11:17:31;99078.00;;;4.60
20058;BMP180;10189;49.546;7.906;2023-02-28T11:20:19;99070.00;;;4.70
20058;BMP180;10189;49.546;7.906;2023-02-28T11:22:47;99079.00;;;4.70
20058;BMP180;10189;49.546;7.906;2023-02-28T11:25:35;99068.00;;;4.80
20058;BMP180;10189;49.546;7.906;2023-02-28T11:28:06;99056.00;;;5.00
20058;BMP180;10189;49.546;7.906;2023-02-28T11:30:40;99057.00;;;5.10
20058;BMP180;10189;49.546;7.906;2023-02-28T11:33:41;99047.00;;;5.20
20058;BMP180;10189;49.546;7.906;2023-02-28T11:36:23;99047.00;;;5.50
20058;BMP180;10189;49.546;7.906;2023-02-28T11:38:55;99043.00;;;5.60
20058;BMP180;10189;49.546;7.906;2023-02-28T11:55:54;99026.00;;;6.00
20058;BMP180;10189;49.546;7.906;2023-02-28T12:01:41;99037.00;;;6.20
20058;BMP180;10189;49.546;7.906;2023-02-28T12:07:31;99001.00;;;6.50
20058;BMP180;10189;49.546;7.906;2023-02-28T12:10:05;99004.00;;;6.50
20058;BMP180;10189;49.546;7.906;2023-02-28T12:13:26;99028.00;;;6.00
20058;BMP180;10189;49.546;7.906;2023-02-28T12:16:14;99023.00;;;5.90
20058;BMP180;10189;49.546;7.906;2023-02-28T12:27:14;99011.00;;;6.40
20058;BMP180;10189;49.546;7.906;2023-02-28T12:30:04;99010.00;;;6.30
20058;BMP180;10189;49.546;7.906;2023-02-28T12:32:39;99000.00;;;6.40
20058;BMP180;10189;49.546;7.906;2023-02-28T12:35:16;99019.00;;;6.30
20058;BMP180;10189;49.546;7.906;2023-02-28T12:37:59;99006.00;;;6.30
20058;BMP180;10189;49.546;7.906;2023-02-28T12:43:09;99031.00;;;6.40
20058;BMP180;10189;49.546;7.906;2023-02-28T12:49:34;99020.00;;;6.30
20058;BMP180;10189;49.546;7.906;2023-02-28T12:52:00;99004.00;;;6.40
20058;BMP180;10189;49.546;7.906;2023-02-28T12:54:47;99010.00;;;6.40
20058;BMP180;10189;49.546;7.906;2023-02-28T13:00:22;98999.00;;;6.50
20058;BMP180;10189;49.546;7.906;2023-02-28T13:09:11;98998.00;;;6.80
20058;BMP180;10189;49.546;7.906;2023-02-28T13:11:53;98996.00;;;7.10
20058;BMP180;10189;49.546;7.906;2023-02-28T13:17:10;98998.00;;;7.10
20058;BMP180;10189;49.546;7.906;2023-02-28T13:19:46;98991.00;;;6.90
20058;BMP180;10189;49.546;7.906;2023-02-28T13:22:42;99002.00;;;6.80
20058;BMP180;10189;49.546;7.906;2023-02-28T13:27:55;99029.00;;;6.50
20058;BMP180;10189;49.546;7.906;2023-02-28T13:33:34;99024.00;;;6.10
20058;BMP180;10189;49.546;7.906;2023-02-28T13:38:57;99006.00;;;6.50
20058;BMP180;10189;49.546;7.906;2023-02-28T13:44:20;99027.00;;;6.40
20058;BMP180;10189;49.546;7.906;2023-02-28T13:49:25;99016.00;;;6.30
20058;BMP180;10189;49.546;7.906;2023-02-28T13:51:53;99039.00;;;6.20
20058;BMP180;10189;49.546;7.906;2023-02-28T14:06:53;99008.00;;;6.60
20058;BMP180;10189;49.546;7.906;2023-02-28T14:09:32;99009.00;;;6.80
20058;BMP180;10189;49.546;7.906;2023-02-28T14:12:56;99012.00;;;6.80
20058;BMP180;10189;49.546;7.906;2023-02-28T14:20:47;99006.00;;;6.70
20058;BMP180;10189;49.546;7.906;2023-02-28T14:23:23;99011.00;;;6.50
20058;BMP180;10189;49.546;7.906;2023-02-28T14:26:51;99006.00;;;6.50
20058;BMP180;10189;49.546;7.906;2023-02-28T14:32:40;98997.00;;;6.40
20058;BMP180;10189;49.546;7.906;2023-02-28T14:37:52;99001.00;;;6.30
20058;BMP180;10189;49.546;7.906;2023-02-28T14:40:34;99013.00;;;6.40
20058;BMP180;10189;49.546;7.906;2023-02-28T14:43:05;99006.00;;;6.50
20058;BMP180;10189;49.546;7.906;2023-02-28T14:45:35;99008.00;;;6.40
20058;BMP180;10189;49.546;7.906;2023-02-28T14:48:09;99016.00;;;6.40
20058;BMP180;10189;49.546;7.906;2023-02-28T14:50:37;99020.00;;;6.20
20058;BMP180;10189;49.546;7.906;2023-02-28T14:53:06;99015.00;;;6.20
20058;BMP180;10189;49.546;7.906;2023-02-28T14:55:43;99015.00;;;6.20
20058;BMP180;10189;49.546;7.906;2023-02-28T15:00:55;99020.00;;;6.20
20058;BMP180;10189;49.546;7.906;2023-02-28T15:03:33;99006.00;;;6.20
20058;BMP180;10189;49.546;7.906;2023-02-28T15:06:12;99015.00;;;6.20
20058;BMP180;10189;49.546;7.906;2023-02-28T15:08:38;99010.00;;;6.20
20058;BMP180;10189;49.546;7.906;2023-02-28T15:11:08;99008.00;;;6.20
20058;BMP180;10189;49.546;7.906;2023-02-28T15:16:22;99003.00;;;6.20
20058;BMP180;10189;49.546;7.906;2023-02-28T15:18:49;99005.00;;;6.30
20058;BMP180;10189;49.546;7.906;2023-02-28T15:21:40;99004.00;;;6.30
20058;BMP180;10189;49.546;7.906;2023-02-28T15:24:21;99008.00;;;6.20
20058;BMP180;10189;49.546;7.906;2023-02-28T15:27:04;99017.00;;;6.10
20058;BMP180;10189;49.546;7.906;2023-02-28T15:29:44;99020.00;;;6.10
20058;BMP180;10189;49.546;7.906;2023-02-28T15:32:35;99018.00;;;6.10
20058;BMP180;10189;49.546;7.906;2023-02-28T15:38:15;99018.00;;;6.10
20058;BMP180;10189;49.546;7.906;2023-02-28T15:40:55;99007.00;;;6.10
20058;BMP180;10189;49.546;7.906;2023-02-28T15:43:29;99017.00;;;5.90
20058;BMP180;10189;49.546;7.906;2023-02-28T15:46:04;99020.00;;;5.90
20058;BMP180;10189;49.546;7.906;2023-02-28T15:48:57;99016.00;;;6.00
20058;BMP180;10189;49.546;7.906;2023-02-28T15:51:36;99014.00;;;5.90
20058;BMP180;10189;49.546;7.906;2023-02-28T15:54:12;99022.00;;;6.00
20058;BMP180;10189;49.546;7.906;2023-02-28T15:56:46;99022.00;;;5.90
20058;BMP180;10189;49.546;7.906;2023-02-28T15:59:21;99017.00;;;5.90
20058;BMP180;10189;49.546;7.906;2023-02-28T16:05:01;99017.00;;;5.90
20058;BMP180;10189;49.546;7.906;2023-02-28T16:07:28;99017.00;;;5.80
20058;BMP180;10189;49.546;7.906;2023-02-28T16:09:55;99020.00;;;5.80
20058;BMP180;10189;49.546;7.906;2023-02-28T16:12:30;99027.00;;;5.80
20058;BMP180;10189;49.546;7.906;2023-02-28T16:15:02;99022.00;;;5.70
20058;BMP180;10189;49.546;7.906;2023-02-28T16:17:38;99031.00;;;5.80
20058;BMP180;10189;49.546;7.906;2023-02-28T16:20:23;99029.00;;;5.70
20058;BMP180;10189;49.546;7.906;2023-02-28T16:22:50;99030.00;;;5.70
20058;BMP180;10189;49.546;7.906;2023-02-28T16:25:25;99041.00;;;5.70
20058;BMP180;10189;49.546;7.906;2023-02-28T16:27:55;99037.00;;;5.60
20058;BMP180;10189;49.546;7.906;2023-02-28T16:30:28;99032.00;;;5.60
20058;BMP180;10189;49.546;7.906;2023-02-28T16:32:57;99042.00;;;5.50
20058;BMP180;10189;49.546;7.906;2023-02-28T16:35:24;99034.00;;;5.50
20058;BMP180;10189;49.546;7.906;2023-02-28T16:37:51;99041.00;;;5.50
20058;BMP180;10189;49.546;7.906;2023-02-28T16:40:24;99041.00;;;5.40
20058;BMP180;10189;49.546;7.906;2023-02-28T16:42:57;99051.00;;;5.40
20058;BMP180;10189;49.546;7.906;2023-02-28T16:45:29;99051.00;;;5.30
20058;BMP180;10189;49.546;7.906;2023-02-28T16:47:55;99051.00;;;5.20
20058;BMP180;10189;49.546;7.906;2023-02-28T16:50:28;99060.00;;;5.20
20058;BMP180;10189;49.546;7.906;2023-02-28T16:52:55;99050.00;;;5.20
20058;BMP180;10189;49.546;7.906;2023-02-28T16:55:23;99055.00;;;5.20
20058;BMP180;10189;49.546;7.906;2023-02-28T16:57:55;99066.00;;;5.20
20058;BMP180;10189;49.546;7.906;2023-02-28T17:00:23;99065.00;;;5.20
20058;BMP180;10189;49.546;7.906;2023-02-28T17:02:49;99077.00;;;5.10
20058;BMP180;10189;49.546;7.906;2023-02-28T17:05:15;99073.00;;;5.00
20058;BMP180;10189;49.546;7.906;2023-02-28T17:07:42;99076.00;;;4.90
20058;BMP180;10189;49.546;7.906;2023-02-28T17:10:28;99077.00;;;4.90
20058;BMP180;10189;49.546;7.906;2023-02-28T17:12:54;99077.00;;;4.80
20058;BMP180;10189;49.546;7.906;2023-02-28T17:15:20;99082.00;;;4.70